sensor_id;sensor_type;location;lat;lon;timestamp;temperature;humidity
1468;DHT22;727;48.892;9.544;2023-04-25T00:00:37;8.40;99.90
1468;DHT22;727;48.892;9.544;2023-04-25T00:03:05;8.50;99.90
1468;DHT22;727;48.892;9.544;2023-04-25T00:05:34;8.50;99.90
1468;DHT22;727;48.892;9.544;2023-04-25T00:08:02;8.60;99.90
1468;DHT22;727;48.892;9.544;2023-04-25T00:10:30;8.60;99.90
1468;DHT22;727;48.892;9.544;2023-04-25T00:12:57;8.70;99.90
1468;DHT22;727;48.892;9.544;2023-04-25T00:15:24;8.70;99.90
1468;DHT22;727;48.892;9.544;2023-04-25T00:17:51;8.70;99.90
1468;DHT22;727;48.892;9.544;2023-04-25T00:20:19;8.70;99.90
1468;DHT22;727;48.892;9.544;2023-04-25T00:22:47;8.80;99.90
1468;DHT22;727;48.892;9.544;2023-04-25T00:25:14;8.70;99.90
1468;DHT22;727;48.892;9.544;2023-04-25T00:27:40;8.80;99.90
1468;DHT22;727;48.892;9.544;2023-04-25T00:30:08;8.80;99.90
1468;DHT22;727;48.892;9.544;2023-04-25T00:32:36;8.70;99.90
1468;DHT22;727;48.892;9.544;2023-04-25T00:35:04;8.70;99.90
1468;DHT22;727;48.892;9.544;2023-04-25T00:37:33;8.70;99.90
1468;DHT22;727;48.892;9.544;2023-04-25T00:39:59;8.70;99.90
1468;DHT22;727;48.892;9.544;2023-04-25T00:42:27;8.80;99.90
1468;DHT22;727;48.892;9.544;2023-04-25T00:44:54;8.80;99.90
1468;DHT22;727;48.892;9.544;2023-04-25T00:47:21;8.70;99.90
1468;DHT22;727;48.892;9.544;2023-04-25T00:49:49;8.70;99.90
1468;DHT22;727;48.892;9.544;2023-04-25T00:52:16;8.60;99.90
1468;DHT22;727;48.892;9.544;2023-04-25T00:54:44;8.60;99.90
1468;DHT22;727;48.892;9.544;2023-04-25T00:57:11;8.50;99.90
1468;DHT22;727;48.892;9.544;2023-04-25T00:59:38;8.50;99.90
1468;DHT22;727;48.892;9.544;2023-04-25T01:02:05;8.40;99.90
1468;DHT22;727;48.892;9.544;2023-04-25T01:04:32;8.30;99.90
1468;DHT22;727;48.892;9.544;2023-04-25T01:06:59;8.30;99.90
1468;DHT22;727;48.892;9.544;2023-04-25T01:09:30;8.20;99.90
1468;DHT22;727;48.892;9.544;2023-04-25T01:11:58;8.10;99.90
1468;DHT22;727;48.892;9.544;2023-04-25T01:14:26;8.10;99.90
1468;DHT22;727;48.892;9.544;2023-04-25T01:16:54;8.00;99.90
1468;DHT22;727;48.892;9.544;2023-04-25T01:19:21;8.00;99.90
1468;DHT22;727;48.892;9.544;2023-04-25T01:21:49;7.90;99.90
1468;DHT22;727;48.892;9.544;2023-04-25T01:24:16;7.90;99.90
1468;DHT22;727;48.892;9.544;2023-04-25T01:26:43;7.90;99.90
1468;DHT22;727;48.892;9.544;2023-04-25T01:29:15;7.80;99.90
1468;DHT22;727;48.892;9.544;2023-04-25T01:31:42;7.80;99.90
1468;DHT22;727;48.892;9.544;2023-04-25T01:34:09;7.80;99.90
1468;DHT22;727;48.892;9.544;2023-04-25T01:36:36;7.80;99.90
1468;DHT22;727;48.892;9.544;2023-04-25T01:39:04;7.80;99.90
1468;DHT22;727;48.892;9.544;2023-04-25T01:41:31;7.70;99.90
1468;DHT22;727;48.892;9.544;2023-04-25T01:44:00;7.70;99.90
1468;DHT22;727;48.892;9.544;2023-04-25T01:46:26;7.80;99.90
1468;DHT22;727;48.892;9.544;2023-04-25T01:48:53;7.80;99.90
1468;DHT22;727;48.892;9.544;2023-04-25T01:51:20;7.70;99.90
1468;DHT22;727;48.892;9.544;2023-04-25T01:53:47;7.70;99.90
1468;DHT22;727;48.892;9.544;2023-04-25T01:56:15;7.70;99.90
1468;DHT22;727;48.892;9.544;2023-04-25T01:58:42;7.70;99.90
1468;DHT22;727;48.892;9.544;2023-04-25T02:01:08;7.70;99.90
1468;DHT22;727;48.892;9.544;2023-04-25T02:03:36;7.70;99.90
1468;DHT22;727;48.892;9.544;2023-04-25T02:06:03;7.70;99.90
1468;DHT22;727;48.892;9.544;2023-04-25T02:08:29;7.70;99.90
1468;DHT22;727;48.892;9.544;2023-04-25T02:10:56;7.80;99.90
1468;DHT22;727;48.892;9.544;2023-04-25T02:13:25;7.80;99.90
1468;DHT22;727;48.892;9.544;2023-04-25T02:15:51;7.80;99.90
1468;DHT22;727;48.892;9.544;2023-04-25T02:18:18;7.70;99.90
1468;DHT22;727;48.892;9.544;2023-04-25T02:20:46;7.70;99.90
1468;DHT22;727;48.892;9.544;2023-04-25T02:23:13;7.60;99.90
1468;DHT22;727;48.892;9.544;2023-04-25T02:25:41;7.50;99.90
1468;DHT22;727;48.892;9.544;2023-04-25T02:28:08;7.40;99.90
1468;DHT22;727;48.892;9.544;2023-04-25T02:30:36;7.40;99.90
1468;DHT22;727;48.892;9.544;2023-04-25T02:33:03;7.30;99.90
1468;DHT22;727;48.892;9.544;2023-04-25T02:35:29;7.20;99.90
1468;DHT22;727;48.892;9.544;2023-04-25T02:37:56;7.20;99.90
1468;DHT22;727;48.892;9.544;2023-04-25T02:40:23;7.10;99.90
1468;DHT22;727;48.892;9.544;2023-04-25T02:42:52;7.00;99.90
1468;DHT22;727;48.892;9.544;2023-04-25T02:45:18;7.00;99.90
1468;DHT22;727;48.892;9.544;2023-04-25T02:47:47;7.00;99.90
1468;DHT22;727;48.892;9.544;2023-04-25T02:50:13;7.00;99.90
1468;DHT22;727;48.892;9.544;2023-04-25T02:52:40;6.90;99.90
1468;DHT22;727;48.892;9.544;2023-04-25T02:55:07;6.90;99.90
1468;DHT22;727;48.892;9.544;2023-04-25T02:57:36;6.90;99.90
1468;DHT22;727;48.892;9.544;2023-04-25T03:00:03;6.90;99.90
1468;DHT22;727;48.892;9.544;2023-04-25T03:02:31;6.90;99.90
1468;DHT22;727;48.892;9.544;2023-04-25T03:05:00;6.90;99.90
1468;DHT22;727;48.892;9.544;2023-04-25T03:07:28;6.90;99.90
1468;DHT22;727;48.892;9.544;2023-04-25T03:09:55;6.90;99.90
1468;DHT22;727;48.892;9.544;2023-04-25T03:12:22;7.00;99.90
1468;DHT22;727;48.892;9.544;2023-04-25T03:14:49;7.00;99.90
1468;DHT22;727;48.892;9.544;2023-04-25T03:17:16;7.10;99.90
1468;DHT22;727;48.892;9.544;2023-04-25T03:19:42;7.10;99.90
1468;DHT22;727;48.892;9.544;2023-04-25T03:22:11;7.10;99.90
1468;DHT22;727;48.892;9.544;2023-04-25T03:24:37;7.20;99.90
1468;DHT22;727;48.892;9.544;2023-04-25T03:27:04;7.20;99.90
1468;DHT22;727;48.892;9.544;2023-04-25T03:29:31;7.30;99.90
1468;DHT22;727;48.892;9.544;2023-04-25T03:31:58;7.20;99.90
1468;DHT22;727;48.892;9.544;2023-04-25T03:34:25;7.30;99.90
1468;DHT22;727;48.892;9.544;2023-04-25T03:36:52;7.30;99.90
1468;DHT22;727;48.892;9.544;2023-04-25T03:39:20;7.30;99.90
1468;DHT22;727;48.892;9.544;2023-04-25T03:41:47;7.30;99.90
1468;DHT22;727;48.892;9.544;2023-04-25T03:44:14;7.30;99.90
1468;DHT22;727;48.892;9.544;2023-04-25T03:46:41;7.30;99.90
1468;DHT22;727;48.892;9.544;2023-04-25T03:49:07;7.20;99.90
1468;DHT22;727;48.892;9.544;2023-04-25T03:51:34;7.20;99.90
1468;DHT22;727;48.892;9.544;2023-04-25T03:54:01;7.20;99.90
1468;DHT22;727;48.892;9.544;2023-04-25T03:56:30;7.20;99.90
1468;DHT22;727;48.892;9.544;2023-04-25T03:58:56;7.30;99.90
1468;DHT22;727;48.892;9.544;2023-04-25T04:01:23;7.30;99.90
1468;DHT22;727;48.892;9.544;2023-04-25T04:03:50;7.40;99.90
1468;DHT22;727;48.892;9.544;2023-04-25T04:06:17;7.50;99.90
1468;DHT22;727;48.892;9.544;2023-04-25T04:08:46;7.50;99.90
1468;DHT22;727;48.892;9.544;2023-04-25T04:11:13;7.50;99.90
1468;DHT22;727;48.892;9.544;2023-04-25T04:13:41;7.50;99.90
1468;DHT22;727;48.892;9.544;2023-04-25T04:16:07;7.50;99.90
1468;DHT22;727;48.892;9.544;2023-04-25T04:18:34;7.60;99.90
1468;DHT22;727;48.892;9.544;2023-04-25T04:21:01;7.60;99.90
1468;DHT22;727;48.892;9.544;2023-04-25T04:23:28;7.60;99.90
1468;DHT22;727;48.892;9.544;2023-04-25T04:25:55;7.70;99.90
1468;DHT22;727;48.892;9.544;2023-04-25T04:28:22;7.70;99.90
1468;DHT22;727;48.892;9.544;2023-04-25T04:30:50;7.70;99.90
1468;DHT22;727;48.892;9.544;2023-04-25T04:33:17;7.80;99.90
1468;DHT22;727;48.892;9.544;2023-04-25T04:35:46;7.80;99.90
1468;DHT22;727;48.892;9.544;2023-04-25T04:38:14;7.80;99.90
1468;DHT22;727;48.892;9.544;2023-04-25T04:40:41;7.90;99.90
1468;DHT22;727;48.892;9.544;2023-04-25T04:43:08;7.80;99.90
1468;DHT22;727;48.892;9.544;2023-04-25T04:45:35;7.90;99.90
1468;DHT22;727;48.892;9.544;2023-04-25T04:48:05;7.90;99.90
1468;DHT22;727;48.892;9.544;2023-04-25T04:50:32;7.90;99.90
1468;DHT22;727;48.892;9.544;2023-04-25T04:52:59;8.00;99.90
1468;DHT22;727;48.892;9.544;2023-04-25T04:55:26;8.10;99.90
1468;DHT22;727;48.892;9.544;2023-04-25T04:57:53;8.10;99.90
1468;DHT22;727;48.892;9.544;2023-04-25T05:00:19;8.20;99.90
1468;DHT22;727;48.892;9.544;2023-04-25T05:02:47;8.30;99.90
1468;DHT22;727;48.892;9.544;2023-04-25T05:05:15;8.30;99.90
1468;DHT22;727;48.892;9.544;2023-04-25T05:07:42;8.40;99.90
1468;DHT22;727;48.892;9.544;2023-04-25T05:10:09;8.60;99.90
1468;DHT22;727;48.892;9.544;2023-04-25T05:12:36;8.70;99.90
1468;DHT22;727;48.892;9.544;2023-04-25T05:15:03;8.80;99.90
1468;DHT22;727;48.892;9.544;2023-04-25T05:17:30;8.90;99.90
1468;DHT22;727;48.892;9.544;2023-04-25T05:19:58;9.00;99.90
1468;DHT22;727;48.892;9.544;2023-04-25T05:22:26;9.10;99.90
1468;DHT22;727;48.892;9.544;2023-04-25T05:24:53;9.20;99.90
1468;DHT22;727;48.892;9.544;2023-04-25T05:27:20;9.20;99.90
1468;DHT22;727;48.892;9.544;2023-04-25T05:29:46;9.40;99.90
1468;DHT22;727;48.892;9.544;2023-04-25T05:32:13;9.50;99.90
1468;DHT22;727;48.892;9.544;2023-04-25T05:34:40;9.50;99.90
1468;DHT22;727;48.892;9.544;2023-04-25T05:37:07;9.60;99.90
1468;DHT22;727;48.892;9.544;2023-04-25T05:39:35;9.70;99.90
1468;DHT22;727;48.892;9.544;2023-04-25T05:42:02;9.70;99.90
1468;DHT22;727;48.892;9.544;2023-04-25T05:44:29;9.60;99.90
1468;DHT22;727;48.892;9.544;2023-04-25T05:46:56;9.70;99.90
1468;DHT22;727;48.892;9.544;2023-04-25T05:49:23;9.70;99.90
1468;DHT22;727;48.892;9.544;2023-04-25T05:51:49;9.70;99.90
1468;DHT22;727;48.892;9.544;2023-04-25T05:54:16;9.70;99.90
1468;DHT22;727;48.892;9.544;2023-04-25T05:56:44;9.80;99.90
1468;DHT22;727;48.892;9.544;2023-04-25T05:59:11;9.70;99.90
1468;DHT22;727;48.892;9.544;2023-04-25T06:01:37;9.70;99.90
1468;DHT22;727;48.892;9.544;2023-04-25T06:04:05;9.70;99.90
1468;DHT22;727;48.892;9.544;2023-04-25T06:06:32;9.80;99.90
1468;DHT22;727;48.892;9.544;2023-04-25T06:08:59;9.80;99.90
1468;DHT22;727;48.892;9.544;2023-04-25T06:11:25;10.00;99.90
1468;DHT22;727;48.892;9.544;2023-04-25T06:13:53;10.20;99.90
1468;DHT22;727;48.892;9.544;2023-04-25T06:16:20;10.40;99.90
1468;DHT22;727;48.892;9.544;2023-04-25T06:18:47;10.60;99.90
1468;DHT22;727;48.892;9.544;2023-04-25T06:21:14;10.70;99.90
1468;DHT22;727;48.892;9.544;2023-04-25T06:23:40;10.70;99.90
1468;DHT22;727;48.892;9.544;2023-04-25T06:26:07;10.70;99.90
1468;DHT22;727;48.892;9.544;2023-04-25T06:28:34;10.60;99.90
1468;DHT22;727;48.892;9.544;2023-04-25T06:31:02;10.60;99.90
1468;DHT22;727;48.892;9.544;2023-04-25T06:33:29;10.50;99.90
1468;DHT22;727;48.892;9.544;2023-04-25T06:35:55;10.40;99.90
1468;DHT22;727;48.892;9.544;2023-04-25T06:38:22;10.30;99.90
1468;DHT22;727;48.892;9.544;2023-04-25T06:40:49;10.10;99.90
1468;DHT22;727;48.892;9.544;2023-04-25T06:43:16;10.00;99.90
1468;DHT22;727;48.892;9.544;2023-04-25T06:45:43;10.00;99.90
1468;DHT22;727;48.892;9.544;2023-04-25T06:48:11;10.10;99.90
1468;DHT22;727;48.892;9.544;2023-04-25T06:50:38;10.20;99.90
1468;DHT22;727;48.892;9.544;2023-04-25T06:53:05;10.30;99.90
1468;DHT22;727;48.892;9.544;2023-04-25T06:55:34;10.40;99.90
1468;DHT22;727;48.892;9.544;2023-04-25T06:58:01;10.40;99.90
1468;DHT22;727;48.892;9.544;2023-04-25T07:00:28;10.60;99.90
1468;DHT22;727;48.892;9.544;2023-04-25T07:02:55;10.70;99.90
1468;DHT22;727;48.892;9.544;2023-04-25T07:05:23;10.80;99.90
1468;DHT22;727;48.892;9.544;2023-04-25T07:07:50;10.80;99.90
1468;DHT22;727;48.892;9.544;2023-04-25T07:10:17;11.00;99.90
1468;DHT22;727;48.892;9.544;2023-04-25T07:12:44;11.40;99.90
1468;DHT22;727;48.892;9.544;2023-04-25T07:15:10;11.50;99.40
1468;DHT22;727;48.892;9.544;2023-04-25T07:17:37;11.60;99.10
1468;DHT22;727;48.892;9.544;2023-04-25T07:20:05;11.80;98.80
1468;DHT22;727;48.892;9.544;2023-04-25T07:22:35;12.00;99.20
1468;DHT22;727;48.892;9.544;2023-04-25T07:25:02;12.00;97.90
1468;DHT22;727;48.892;9.544;2023-04-25T07:27:29;12.10;97.50
1468;DHT22;727;48.892;9.544;2023-04-25T07:29:56;12.00;97.00
1468;DHT22;727;48.892;9.544;2023-04-25T07:32:27;11.90;97.40
1468;DHT22;727;48.892;9.544;2023-04-25T07:34:54;11.70;97.40
1468;DHT22;727;48.892;9.544;2023-04-25T07:37:21;11.50;97.90
1468;DHT22;727;48.892;9.544;2023-04-25T07:39:49;11.50;98.20
1468;DHT22;727;48.892;9.544;2023-04-25T07:42:16;11.60;98.10
1468;DHT22;727;48.892;9.544;2023-04-25T07:44:43;11.70;98.20
1468;DHT22;727;48.892;9.544;2023-04-25T07:47:10;11.70;98.30
1468;DHT22;727;48.892;9.544;2023-04-25T07:49:37;11.70;98.30
1468;DHT22;727;48.892;9.544;2023-04-25T07:52:05;11.70;98.40
1468;DHT22;727;48.892;9.544;2023-04-25T07:54:32;11.90;98.20
1468;DHT22;727;48.892;9.544;2023-04-25T07:57:00;12.00;98.20
1468;DHT22;727;48.892;9.544;2023-04-25T07:59:27;12.20;97.60
1468;DHT22;727;48.892;9.544;2023-04-25T08:01:54;12.20;97.40
1468;DHT22;727;48.892;9.544;2023-04-25T08:04:22;12.10;97.00
1468;DHT22;727;48.892;9.544;2023-04-25T08:06:49;12.10;97.00
1468;DHT22;727;48.892;9.544;2023-04-25T08:09:16;12.20;97.30
1468;DHT22;727;48.892;9.544;2023-04-25T08:11:43;12.10;97.20
1468;DHT22;727;48.892;9.544;2023-04-25T08:14:11;12.00;96.90
1468;DHT22;727;48.892;9.544;2023-04-25T08:16:38;11.80;97.30
1468;DHT22;727;48.892;9.544;2023-04-25T08:19:05;11.70;97.30
1468;DHT22;727;48.892;9.544;2023-04-25T08:21:32;11.60;97.80
1468;DHT22;727;48.892;9.544;2023-04-25T08:23:59;11.40;98.00
1468;DHT22;727;48.892;9.544;2023-04-25T08:26:26;11.10;99.10
1468;DHT22;727;48.892;9.544;2023-04-25T08:28:53;10.90;99.90
1468;DHT22;727;48.892;9.544;2023-04-25T08:31:21;10.70;99.90
1468;DHT22;727;48.892;9.544;2023-04-25T08:33:48;10.60;99.90
1468;DHT22;727;48.892;9.544;2023-04-25T08:36:16;10.40;99.90
1468;DHT22;727;48.892;9.544;2023-04-25T08:38:44;10.30;99.90
1468;DHT22;727;48.892;9.544;2023-04-25T08:41:11;10.20;99.90
1468;DHT22;727;48.892;9.544;2023-04-25T08:43:42;10.00;99.90
1468;DHT22;727;48.892;9.544;2023-04-25T08:46:09;10.10;99.90
1468;DHT22;727;48.892;9.544;2023-04-25T08:48:40;10.10;99.90
1468;DHT22;727;48.892;9.544;2023-04-25T08:51:10;10.10;99.90
1468;DHT22;727;48.892;9.544;2023-04-25T08:53:41;10.20;99.90
1468;DHT22;727;48.892;9.544;2023-04-25T08:56:12;10.30;99.90
1468;DHT22;727;48.892;9.544;2023-04-25T08:58:40;10.40;99.90
1468;DHT22;727;48.892;9.544;2023-04-25T09:01:07;10.40;99.90
1468;DHT22;727;48.892;9.544;2023-04-25T09:03:34;10.40;99.90
1468;DHT22;727;48.892;9.544;2023-04-25T09:06:03;10.50;99.90
1468;DHT22;727;48.892;9.544;2023-04-25T09:08:30;10.70;99.90
1468;DHT22;727;48.892;9.544;2023-04-25T09:10:57;10.90;99.90
1468;DHT22;727;48.892;9.544;2023-04-25T09:13:25;11.20;99.90
1468;DHT22;727;48.892;9.544;2023-04-25T09:15:53;11.40;99.90
1468;DHT22;727;48.892;9.544;2023-04-25T09:18:24;11.60;99.90
1468;DHT22;727;48.892;9.544;2023-04-25T09:20:52;11.70;99.90
1468;DHT22;727;48.892;9.544;2023-04-25T09:23:21;11.70;99.90
1468;DHT22;727;48.892;9.544;2023-04-25T09:25:49;11.70;99.90
1468;DHT22;727;48.892;9.544;2023-04-25T09:28:16;11.80;99.90
1468;DHT22;727;48.892;9.544;2023-04-25T09:30:49;12.00;99.90
1468;DHT22;727;48.892;9.544;2023-04-25T09:33:15;12.10;99.90
1468;DHT22;727;48.892;9.544;2023-04-25T09:35:43;12.10;99.90
1468;DHT22;727;48.892;9.544;2023-04-25T09:38:11;12.10;99.90
1468;DHT22;727;48.892;9.544;2023-04-25T09:40:44;12.20;99.90
1468;DHT22;727;48.892;9.544;2023-04-25T09:43:19;12.30;99.90
1468;DHT22;727;48.892;9.544;2023-04-25T09:45:47;12.50;99.50
1468;DHT22;727;48.892;9.544;2023-04-25T09:48:17;12.60;99.60
1468;DHT22;727;48.892;9.544;2023-04-25T09:50:45;12.70;98.90
1468;DHT22;727;48.892;9.544;2023-04-25T09:53:12;12.70;99.00
1468;DHT22;727;48.892;9.544;2023-04-25T09:55:40;12.70;98.90
1468;DHT22;727;48.892;9.544;2023-04-25T09:58:10;12.60;98.40
1468;DHT22;727;48.892;9.544;2023-04-25T10:00:37;12.60;98.30
1468;DHT22;727;48.892;9.544;2023-04-25T10:03:05;12.70;97.80
1468;DHT22;727;48.892;9.544;2023-04-25T10:05:34;12.70;97.80
1468;DHT22;727;48.892;9.544;2023-04-25T10:08:03;12.70;98.30
1468;DHT22;727;48.892;9.544;2023-04-25T10:10:32;12.70;97.70
1468;DHT22;727;48.892;9.544;2023-04-25T10:13:03;12.70;97.90
1468;DHT22;727;48.892;9.544;2023-04-25T10:15:32;12.50;98.30
1468;DHT22;727;48.892;9.544;2023-04-25T10:18:01;12.40;98.40
1468;DHT22;727;48.892;9.544;2023-04-25T10:20:28;12.20;98.70
1468;DHT22;727;48.892;9.544;2023-04-25T10:22:58;12.00;98.80
1468;DHT22;727;48.892;9.544;2023-04-25T10:25:29;11.80;99.50
1468;DHT22;727;48.892;9.544;2023-04-25T10:27:59;11.70;99.90
1468;DHT22;727;48.892;9.544;2023-04-25T10:30:26;11.50;99.90
1468;DHT22;727;48.892;9.544;2023-04-25T10:32:55;11.40;99.90
1468;DHT22;727;48.892;9.544;2023-04-25T10:35:25;11.30;99.90
1468;DHT22;727;48.892;9.544;2023-04-25T10:38:04;10.80;99.90
1468;DHT22;727;48.892;9.544;2023-04-25T10:40:31;10.50;99.90
1468;DHT22;727;48.892;9.544;2023-04-25T10:45:59;9.60;99.90
1468;DHT22;727;48.892;9.544;2023-04-25T10:48:28;9.50;99.90
1468;DHT22;727;48.892;9.544;2023-04-25T10:51:07;9.40;99.90
1468;DHT22;727;48.892;9.544;2023-04-25T10:53:34;9.10;99.90
1468;DHT22;727;48.892;9.544;2023-04-25T10:56:09;9.00;99.90
1468;DHT22;727;48.892;9.544;2023-04-25T10:58:36;8.80;99.90
1468;DHT22;727;48.892;9.544;2023-04-25T11:01:07;8.70;99.90
1468;DHT22;727;48.892;9.544;2023-04-25T11:03:40;8.60;99.90
1468;DHT22;727;48.892;9.544;2023-04-25T11:06:15;8.50;99.90
1468;DHT22;727;48.892;9.544;2023-04-25T11:08:48;8.60;99.90
1468;DHT22;727;48.892;9.544;2023-04-25T11:11:16;8.50;99.90
1468;DHT22;727;48.892;9.544;2023-04-25T11:13:44;8.60;99.90
1468;DHT22;727;48.892;9.544;2023-04-25T11:16:10;8.70;99.90
1468;DHT22;727;48.892;9.544;2023-04-25T11:18:40;8.80;99.90
1468;DHT22;727;48.892;9.544;2023-04-25T11:21:07;8.80;99.90
1468;DHT22;727;48.892;9.544;2023-04-25T11:23:34;9.00;99.90
1468;DHT22;727;48.892;9.544;2023-04-25T11:26:02;9.20;99.90
1468;DHT22;727;48.892;9.544;2023-04-25T11:28:29;9.20;99.90
1468;DHT22;727;48.892;9.544;2023-04-25T11:30:58;9.30;99.90
1468;DHT22;727;48.892;9.544;2023-04-25T11:33:25;9.40;99.90
1468;DHT22;727;48.892;9.544;2023-04-25T11:35:55;9.40;99.90
1468;DHT22;727;48.892;9.544;2023-04-25T11:38:22;9.50;99.90
1468;DHT22;727;48.892;9.544;2023-04-25T11:40:51;9.40;99.90
1468;DHT22;727;48.892;9.544;2023-04-25T11:43:20;9.30;99.90
1468;DHT22;727;48.892;9.544;2023-04-25T11:45:48;9.30;99.90
1468;DHT22;727;48.892;9.544;2023-04-25T11:48:16;9.20;99.90
1468;DHT22;727;48.892;9.544;2023-04-25T11:50:43;9.20;99.90
1468;DHT22;727;48.892;9.544;2023-04-25T11:53:11;9.20;99.90
1468;DHT22;727;48.892;9.544;2023-04-25T11:55:38;9.30;99.90
1468;DHT22;727;48.892;9.544;2023-04-25T11:58:05;9.40;99.90
1468;DHT22;727;48.892;9.544;2023-04-25T12:00:34;9.50;99.90
1468;DHT22;727;48.892;9.544;2023-04-25T12:03:01;9.60;99.90
1468;DHT22;727;48.892;9.544;2023-04-25T12:05:30;9.70;99.90
1468;DHT22;727;48.892;9.544;2023-04-25T12:08:09;10.00;99.90
1468;DHT22;727;48.892;9.544;2023-04-25T12:10:39;10.40;99.90
1468;DHT22;727;48.892;9.544;2023-04-25T12:13:24;10.80;99.90
1468;DHT22;727;48.892;9.544;2023-04-25T12:15:51;11.30;99.90
1468;DHT22;727;48.892;9.544;2023-04-25T12:18:23;11.80;99.90
1468;DHT22;727;48.892;9.544;2023-04-25T12:20:52;12.00;99.90
1468;DHT22;727;48.892;9.544;2023-04-25T12:23:25;12.30;99.90
1468;DHT22;727;48.892;9.544;2023-04-25T12:25:54;12.80;99.90
1468;DHT22;727;48.892;9.544;2023-04-25T12:28:23;13.30;99.90
1468;DHT22;727;48.892;9.544;2023-04-25T12:30:57;13.20;98.50
1468;DHT22;727;48.892;9.544;2023-04-25T12:33:25;12.90;98.50
1468;DHT22;727;48.892;9.544;2023-04-25T12:35:52;12.50;99.10
1468;DHT22;727;48.892;9.544;2023-04-25T12:38:23;12.30;99.90
1468;DHT22;727;48.892;9.544;2023-04-25T12:40:50;12.20;99.90
1468;DHT22;727;48.892;9.544;2023-04-25T12:43:19;11.90;99.90
1468;DHT22;727;48.892;9.544;2023-04-25T12:45:48;11.70;99.90
1468;DHT22;727;48.892;9.544;2023-04-25T12:48:15;11.70;99.90
1468;DHT22;727;48.892;9.544;2023-04-25T12:50:42;11.60;99.90
1468;DHT22;727;48.892;9.544;2023-04-25T12:53:10;11.60;99.90
1468;DHT22;727;48.892;9.544;2023-04-25T12:55:37;11.60;99.90
1468;DHT22;727;48.892;9.544;2023-04-25T12:58:03;11.80;99.90
1468;DHT22;727;48.892;9.544;2023-04-25T13:00:31;11.80;99.90
1468;DHT22;727;48.892;9.544;2023-04-25T13:02:58;11.70;99.90
1468;DHT22;727;48.892;9.544;2023-04-25T13:05:25;11.50;99.90
1468;DHT22;727;48.892;9.544;2023-04-25T13:07:52;11.40;99.90
1468;DHT22;727;48.892;9.544;2023-04-25T13:10:19;11.40;99.90
1468;DHT22;727;48.892;9.544;2023-04-25T13:12:45;11.40;99.90
1468;DHT22;727;48.892;9.544;2023-04-25T13:15:12;11.10;99.90
1468;DHT22;727;48.892;9.544;2023-04-25T13:17:42;11.10;99.90
1468;DHT22;727;48.892;9.544;2023-04-25T13:20:09;11.30;99.90
1468;DHT22;727;48.892;9.544;2023-04-25T13:22:39;11.40;99.90
1468;DHT22;727;48.892;9.544;2023-04-25T13:25:07;11.50;99.90
1468;DHT22;727;48.892;9.544;2023-04-25T13:27:35;11.60;99.90
1468;DHT22;727;48.892;9.544;2023-04-25T13:30:03;11.50;99.90
1468;DHT22;727;48.892;9.544;2023-04-25T13:32:32;11.50;99.90
1468;DHT22;727;48.892;9.544;2023-04-25T13:35:03;11.40;99.90
1468;DHT22;727;48.892;9.544;2023-04-25T13:37:30;11.20;99.90
1468;DHT22;727;48.892;9.544;2023-04-25T13:39:59;11.10;99.90
1468;DHT22;727;48.892;9.544;2023-04-25T13:42:25;11.20;99.90
1468;DHT22;727;48.892;9.544;2023-04-25T13:44:52;11.20;99.90
1468;DHT22;727;48.892;9.544;2023-04-25T13:47:19;11.30;99.90
1468;DHT22;727;48.892;9.544;2023-04-25T13:49:45;11.50;99.90
1468;DHT22;727;48.892;9.544;2023-04-25T13:52:14;11.80;99.90
1468;DHT22;727;48.892;9.544;2023-04-25T13:54:40;12.10;99.90
1468;DHT22;727;48.892;9.544;2023-04-25T13:57:07;12.20;99.90
1468;DHT22;727;48.892;9.544;2023-04-25T13:59:34;12.10;99.70
1468;DHT22;727;48.892;9.544;2023-04-25T14:02:01;11.80;99.90
1468;DHT22;727;48.892;9.544;2023-04-25T14:04:28;11.90;99.90
1468;DHT22;727;48.892;9.544;2023-04-25T14:06:55;12.20;99.90
1468;DHT22;727;48.892;9.544;2023-04-25T14:09:23;12.40;99.90
1468;DHT22;727;48.892;9.544;2023-04-25T14:11:51;12.30;99.60
1468;DHT22;727;48.892;9.544;2023-04-25T14:14:17;12.00;99.90
1468;DHT22;727;48.892;9.544;2023-04-25T14:16:44;11.70;99.90
1468;DHT22;727;48.892;9.544;2023-04-25T14:19:13;11.30;99.90
1468;DHT22;727;48.892;9.544;2023-04-25T14:21:40;11.10;99.90
1468;DHT22;727;48.892;9.544;2023-04-25T14:24:08;10.90;99.90
1468;DHT22;727;48.892;9.544;2023-04-25T14:26:37;10.90;99.90
1468;DHT22;727;48.892;9.544;2023-04-25T14:29:05;11.30;99.90
1468;DHT22;727;48.892;9.544;2023-04-25T14:31:32;11.80;99.90
1468;DHT22;727;48.892;9.544;2023-04-25T14:33:59;12.10;99.90
1468;DHT22;727;48.892;9.544;2023-04-25T14:36:26;12.30;99.90
1468;DHT22;727;48.892;9.544;2023-04-25T14:38:52;12.30;99.90
1468;DHT22;727;48.892;9.544;2023-04-25T14:41:19;12.30;99.90
1468;DHT22;727;48.892;9.544;2023-04-25T14:43:48;12.30;99.90
1468;DHT22;727;48.892;9.544;2023-04-25T14:46:14;12.20;99.90
1468;DHT22;727;48.892;9.544;2023-04-25T14:48:42;12.20;99.90
1468;DHT22;727;48.892;9.544;2023-04-25T14:51:09;12.40;99.90
1468;DHT22;727;48.892;9.544;2023-04-25T14:53:35;12.60;99.90
1468;DHT22;727;48.892;9.544;2023-04-25T14:56:03;12.60;99.90
1468;DHT22;727;48.892;9.544;2023-04-25T14:58:30;12.50;99.90
1468;DHT22;727;48.892;9.544;2023-04-25T15:00:59;12.50;99.90
1468;DHT22;727;48.892;9.544;2023-04-25T15:03:25;12.50;99.60
1468;DHT22;727;48.892;9.544;2023-04-25T15:05:53;12.50;99.70
1468;DHT22;727;48.892;9.544;2023-04-25T15:08:21;12.40;99.30
1468;DHT22;727;48.892;9.544;2023-04-25T15:10:48;12.40;99.60
1468;DHT22;727;48.892;9.544;2023-04-25T15:13:15;12.40;99.70
1468;DHT22;727;48.892;9.544;2023-04-25T15:15:41;12.40;99.70
1468;DHT22;727;48.892;9.544;2023-04-25T15:18:09;12.60;99.70
1468;DHT22;727;48.892;9.544;2023-04-25T15:20:36;12.80;99.50
1468;DHT22;727;48.892;9.544;2023-04-25T15:23:03;12.80;98.70
1468;DHT22;727;48.892;9.544;2023-04-25T15:25:30;12.70;98.70
1468;DHT22;727;48.892;9.544;2023-04-25T15:27:57;12.50;99.10
1468;DHT22;727;48.892;9.544;2023-04-25T15:30:23;12.30;99.90
1468;DHT22;727;48.892;9.544;2023-04-25T15:32:50;12.10;99.90
1468;DHT22;727;48.892;9.544;2023-04-25T15:35:18;11.80;99.90
1468;DHT22;727;48.892;9.544;2023-04-25T15:37:45;11.70;99.90
1468;DHT22;727;48.892;9.544;2023-04-25T15:40:15;11.70;99.90
1468;DHT22;727;48.892;9.544;2023-04-25T15:42:44;11.80;99.90
1468;DHT22;727;48.892;9.544;2023-04-25T15:45:13;11.90;99.90
1468;DHT22;727;48.892;9.544;2023-04-25T15:47:42;12.00;99.90
1468;DHT22;727;48.892;9.544;2023-04-25T15:50:09;12.10;99.90
1468;DHT22;727;48.892;9.544;2023-04-25T15:52:38;12.10;99.90
1468;DHT22;727;48.892;9.544;2023-04-25T15:55:06;12.00;99.90
1468;DHT22;727;48.892;9.544;2023-04-25T15:57:34;11.90;99.90
1468;DHT22;727;48.892;9.544;2023-04-25T16:00:02;11.80;99.90
1468;DHT22;727;48.892;9.544;2023-04-25T16:02:36;11.80;99.90
1468;DHT22;727;48.892;9.544;2023-04-25T16:05:03;11.80;99.90
1468;DHT22;727;48.892;9.544;2023-04-25T16:07:30;11.80;99.90
1468;DHT22;727;48.892;9.544;2023-04-25T16:09:58;11.80;99.90
1468;DHT22;727;48.892;9.544;2023-04-25T16:12:26;11.80;99.90
1468;DHT22;727;48.892;9.544;2023-04-25T16:14:52;11.80;99.90
1468;DHT22;727;48.892;9.544;2023-04-25T16:17:19;11.90;99.90
1468;DHT22;727;48.892;9.544;2023-04-25T16:19:46;11.90;99.90
1468;DHT22;727;48.892;9.544;2023-04-25T16:22:14;12.00;99.90
1468;DHT22;727;48.892;9.544;2023-04-25T16:24:41;12.20;99.90
1468;DHT22;727;48.892;9.544;2023-04-25T16:27:09;12.40;99.90
1468;DHT22;727;48.892;9.544;2023-04-25T16:29:37;12.40;99.90